メインページ
METAR-TAF:

METAR-TAF

空港 :

メヘラーバード国際空港

テヘラン, イラン

緯度: 35-41N, 経度: 051-21E, 海抜: 1204m

現時点の気象観測

当レポートは26分前の19:00(UTC)に作成
北/北西の風 6kt
気温 26°C
湿度 26%
気圧 1019 hPa
視程: 7000m
高度4000ftの雲はほとんどない
高度10000ftの雲は散在している

METAR: OIII 181900Z 33006KT 7000 FEW040 SCT100 26/05 Q1018 A3008

時間: 23:56 (19:26 UTC)

予報

当レポートは2時間11分前の17:15(UTC)に作成
予報は18日の 18時(UTC)から 19日の 24時(UTC)まで有効
北西の風 10kt
視程: 8000m
高度3500ftの雲はほとんどない, 積乱雲.
高度4000ftの雲は散在している
高度10000ftの千切れ雲あり
18日の 18時(UTC)から 18日の 24時(UTC)まで一時的に
西の風 19kt
視程: 4000m
高度3500ftの雲は散在している, 積乱雲.
高度4000ftの雲は散在している
高度10000ftの千切れ雲あり
砂, にわか雨
19日の 01時(UTC)から 19日の 03時(UTC)まで徐々に
視程: 7000m
高度3500ftの雲はほとんどない
19日の 13時(UTC)から 19日の 18時(UTC)まで一時的に
北/北西の風 14kt、最大25ktの突風を伴う
視程: 2000m
高度3500ftの雲は散在している, 積乱雲.
高度4000ftの雲は散在している
高度10000ftの千切れ雲あり
砂, にわか雨

TAF: OIII 181715Z 1818/1924 31005MPS 8000 FEW035CB SCT040 BKN100 TEMPO 1818/1824 27010MPS 4000 SA SHRA SCT035CB SCT040 BKN100 BECMG 1901/1903 7000 FEW035 TEMPO 1913/1918 33007G13MPS 2000 SA SHRA SCT035CB SCT040 BKN100

4,000以上の空港の気象観測と天気予報(METAR報とTAF報)

利用可能な観測所は地図上に黄色い丸と赤い丸で示す。

丸の上にカーソルを重ねると観測所名を参照できる。

次にクリックすると気象観測と天気予報を参照できる。

マップの切り替え:黒色「×」印の緑ボタンをクリックして拡大、「-」印の緑ボタンをクリックして縮小、緑色の三角印をクリックして隣りの地図に切り替え


METAR-TAF: